Time,TemperatureF,DewpointF,PressureIn,WindDirection,WindDirectionDegrees,WindSpeedMPH,WindSpeedGustMPH,Humidity,HourlyPrecipIn,Conditions,Clouds,dailyrainin,SolarRadiationWatts/m^2,SoftwareType,DateUTC
2013-02-03 00:13:00,12.9,10.0,30.00,SW,231,0.0,3.0,87,0.00,,,0.00,0,weatherlink.com 1.10,2013-02-03 05:13:00,
2013-02-03 00:28:00,12.6,10.0,30.00,South,183,0.0,2.0,88,0.00,,,0.00,0,weatherlink.com 1.10,2013-02-03 05:28:00,
2013-02-03 00:43:00,12.5,10.0,29.99,SSW,203,0.0,3.0,89,0.00,,,0.00,0,weatherlink.com 1.10,2013-02-03 05:43:00,
2013-02-03 00:58:00,12.6,10.0,29.99,SSW,213,0.0,2.0,88,0.00,,,0.00,0,weatherlink.com 1.10,2013-02-03 05:58:00,
2013-02-03 01:13:00,12.5,10.0,29.99,SSW,209,0.0,3.0,89,0.00,,,0.00,0,weatherlink.com 1.10,2013-02-03 06:13:00,
2013-02-03 01:28:00,12.3,10.0,29.99,SSW,196,0.0,3.0,89,0.00,,,0.00,0,weatherlink.com 1.10,2013-02-03 06:28:00,
2013-02-03 01:43:00,12.2,10.0,29.99,SSW,197,1.0,4.0,89,0.00,,,0.00,0,weatherlink.com 1.10,2013-02-03 06:43:00,
2013-02-03 01:58:00,12.1,10.0,29.99,SSW,205,2.0,6.0,89,0.00,,,0.00,0,weatherlink.com 1.10,2013-02-03 06:58:00,
2013-02-03 02:13:00,12.2,10.0,29.99,SSW,199,1.0,5.0,89,0.00,,,0.00,0,weatherlink.com 1.10,2013-02-03 07:13:00,
2013-02-03 02:28:00,12.3,10.0,29.98,SSW,212,2.0,5.0,89,0.00,,,0.00,0,weatherlink.com 1.10,2013-02-03 07:28:00,
2013-02-03 02:43:00,12.2,10.0,29.99,South,185,2.0,2.0,89,0.00,,,0.00,0,weatherlink.com 1.10,2013-02-03 07:43:00,
2013-02-03 02:59:00,12.1,10.0,29.98,SSW,205,0.0,2.0,89,0.00,,,0.00,0,weatherlink.com 1.10,2013-02-03 07:59:00,
2013-02-03 03:13:00,12.3,10.0,29.98,SW,215,2.0,5.0,90,0.00,,,0.00,0,weatherlink.com 1.10,2013-02-03 08:13:00,
2013-02-03 03:28:00,12.3,10.0,29.97,SSW,194,2.0,5.0,89,0.00,,,0.00,0,weatherlink.com 1.10,2013-02-03 08:28:00,
2013-02-03 03:43:00,12.0,9.0,29.97,SSW,197,0.0,1.0,89,0.00,,,0.00,0,weatherlink.com 1.10,2013-02-03 08:43:00,
2013-02-03 03:58:00,11.7,9.0,29.96,SW,216,2.0,3.0,89,0.00,,,0.00,0,weatherlink.com 1.10,2013-02-03 08:58:00,
2013-02-03 04:13:00,11.4,9.0,29.96,WSW,244,3.0,4.0,89,0.00,,,0.00,0,weatherlink.com 1.10,2013-02-03 09:13:00,
2013-02-03 04:28:00,11.5,9.0,29.96,SW,236,0.0,4.0,89,0.00,,,0.00,0,weatherlink.com 1.10,2013-02-03 09:28:00,
2013-02-03 04:43:00,11.5,9.0,29.95,WSW,237,2.0,3.0,89,0.00,,,0.00,0,weatherlink.com 1.10,2013-02-03 09:43:00,
2013-02-03 04:58:00,11.4,9.0,29.95,WSW,245,3.0,4.0,89,0.00,,,0.00,0,weatherlink.com 1.10,2013-02-03 09:58:00,
2013-02-03 05:13:00,11.4,9.0,29.94,SW,233,3.0,4.0,89,0.00,,,0.00,0,weatherlink.com 1.10,2013-02-03 10:13:00,
2013-02-03 05:28:00,11.4,9.0,29.95,SW,233,0.0,3.0,89,0.00,,,0.00,0,weatherlink.com 1.10,2013-02-03 10:28:00,
2013-02-03 05:43:00,11.3,9.0,29.94,SW,233,0.0,0.0,89,0.00,,,0.00,0,weatherlink.com 1.10,2013-02-03 10:43:00,
2013-02-03 05:58:00,11.2,9.0,29.94,SW,233,0.0,0.0,90,0.00,,,0.00,0,weatherlink.com 1.10,2013-02-03 10:58:00,
2013-02-03 06:13:00,11.4,9.0,29.93,SSW,209,0.0,2.0,90,0.00,,,0.00,0,weatherlink.com 1.10,2013-02-03 11:13:00,
2013-02-03 06:28:00,10.9,9.0,29.93,SSW,209,0.0,0.0,90,0.00,,,0.00,0,weatherlink.com 1.10,2013-02-03 11:28:00,
2013-02-03 06:58:00,10.7,9.0,29.92,SSW,207,0.0,1.0,91,0.00,,,0.00,0,weatherlink.com 1.10,2013-02-03 11:58:00,
2013-02-03 07:13:00,10.7,9.0,29.92,SSW,204,0.0,0.0,91,0.00,,,0.00,0,weatherlink.com 1.10,2013-02-03 12:13:00,
2013-02-03 07:28:00,10.8,9.0,29.92,SSW,195,1.0,2.0,91,0.00,,,0.00,9,weatherlink.com 1.10,2013-02-03 12:28:00,
2013-02-03 07:43:00,11.3,9.0,29.92,SSW,213,1.0,2.0,90,0.00,,,0.00,23,weatherlink.com 1.10,2013-02-03 12:43:00,
2013-02-03 08:00:00,11.9,10.0,29.92,SW,216,0.0,2.0,90,0.00,,,0.00,35,weatherlink.com 1.10,2013-02-03 13:00:00,
2013-02-03 08:13:00,12.8,11.0,29.93,SSE,165,0.0,3.0,90,0.00,,,0.00,62,weatherlink.com 1.10,2013-02-03 13:13:00,
2013-02-03 08:28:00,14.1,11.0,29.93,SSE,168,1.0,4.0,88,0.00,,,0.00,93,weatherlink.com 1.10,2013-02-03 13:28:00,
2013-02-03 08:44:00,14.7,11.0,29.92,SSE,149,4.0,7.0,86,0.00,,,0.00,135,weatherlink.com 1.10,2013-02-03 13:44:00,
2013-02-03 08:59:00,15.1,11.0,29.92,SE,138,4.0,6.0,85,0.00,,,0.00,155,weatherlink.com 1.10,2013-02-03 13:59:00,
2013-02-03 09:14:00,15.6,12.0,29.92,SSE,161,2.0,5.0,85,0.00,,,0.00,192,weatherlink.com 1.10,2013-02-03 14:14:00,
2013-02-03 09:29:00,17.0,13.0,29.92,SE,127,3.0,5.0,83,0.00,,,0.00,236,weatherlink.com 1.10,2013-02-03 14:29:00,
2013-02-03 09:44:00,17.4,13.0,29.92,SE,139,3.0,5.0,81,0.00,,,0.00,225,weatherlink.com 1.10,2013-02-03 14:44:00,
2013-02-03 09:59:00,17.7,13.0,29.91,SE,142,2.0,7.0,81,0.00,,,0.00,367,weatherlink.com 1.10,2013-02-03 14:59:00,
2013-02-03 10:14:00,18.2,13.0,29.91,SE,136,6.0,8.0,81,0.00,,,0.00,264,weatherlink.com 1.10,2013-02-03 15:14:00,
2013-02-03 10:29:00,18.8,14.0,29.91,SSE,148,5.0,8.0,81,0.00,,,0.00,250,weatherlink.com 1.10,2013-02-03 15:29:00,
2013-02-03 10:45:00,20.7,15.0,29.90,SSE,148,7.0,8.0,80,0.00,,,0.00,429,weatherlink.com 1.10,2013-02-03 15:45:00,
2013-02-03 10:59:00,21.3,15.0,29.89,SSE,154,6.0,10.0,78,0.00,,,0.00,459,weatherlink.com 1.10,2013-02-03 15:59:00,
2013-02-03 11:14:00,22.6,16.0,29.89,SSE,164,8.0,10.0,75,0.00,,,0.00,531,weatherlink.com 1.10,2013-02-03 16:14:00,
2013-02-03 11:29:00,23.1,16.0,29.89,East,99,5.0,8.0,75,0.00,,,0.00,575,weatherlink.com 1.10,2013-02-03 16:29:00,
2013-02-03 11:44:00,23.0,16.0,29.87,South,185,2.0,10.0,73,0.00,,,0.00,533,weatherlink.com 1.10,2013-02-03 16:44:00,
2013-02-03 11:59:00,24.0,16.0,29.87,SSE,158,4.0,7.0,72,0.00,,,0.00,494,weatherlink.com 1.10,2013-02-03 16:59:00,
2013-02-03 12:14:00,24.3,16.0,29.86,SE,144,6.0,7.0,71,0.00,,,0.00,582,weatherlink.com 1.10,2013-02-03 17:14:00,
2013-02-03 12:29:00,25.1,17.0,29.84,ESE,118,1.0,6.0,70,0.00,,,0.00,589,weatherlink.com 1.10,2013-02-03 17:29:00,
2013-02-03 12:44:00,25.4,16.0,29.84,WSW,251,4.0,6.0,67,0.00,,,0.00,445,weatherlink.com 1.10,2013-02-03 17:44:00,
2013-02-03 12:59:00,24.8,15.0,29.83,WSW,252,5.0,6.0,66,0.00,,,0.00,367,weatherlink.com 1.10,2013-02-03 17:59:00,
2013-02-03 13:14:00,25.4,14.0,29.83,SSW,196,3.0,7.0,63,0.00,,,0.00,385,weatherlink.com 1.10,2013-02-03 18:14:00,
2013-02-03 13:29:00,25.3,14.0,29.82,SW,216,3.0,6.0,63,0.00,,,0.00,373,weatherlink.com 1.10,2013-02-03 18:29:00,
2013-02-03 13:45:00,25.1,14.0,29.81,SSE,165,0.0,5.0,64,0.00,,,0.00,339,weatherlink.com 1.10,2013-02-03 18:45:00,
2013-02-03 14:00:00,24.6,15.0,29.80,WSW,237,0.0,4.0,67,0.00,,,0.00,420,weatherlink.com 1.10,2013-02-03 19:00:00,
2013-02-03 14:15:00,24.6,15.0,29.80,WSW,246,4.0,5.0,66,0.00,,,0.00,276,weatherlink.com 1.10,2013-02-03 19:15:00,
2013-02-03 14:30:00,24.9,15.0,29.79,SSE,168,0.0,2.0,66,0.00,,,0.00,216,weatherlink.com 1.10,2013-02-03 19:30:00,
2013-02-03 14:45:00,25.1,14.0,29.80,SSE,155,2.0,2.0,64,0.00,,,0.00,169,weatherlink.com 1.10,2013-02-03 19:45:00,
2013-02-03 15:00:00,25.1,16.0,29.79,SSW,204,0.0,3.0,67,0.00,,,0.00,181,weatherlink.com 1.10,2013-02-03 20:00:00,
2013-02-03 15:15:00,25.0,15.0,29.79,SW,228,1.0,3.0,65,0.00,,,0.00,100,weatherlink.com 1.10,2013-02-03 20:15:00,
2013-02-03 15:30:00,24.2,15.0,29.79,West,267,3.0,7.0,69,0.00,,,0.00,56,weatherlink.com 1.10,2013-02-03 20:30:00,
2013-02-03 15:45:00,23.8,16.0,29.79,NNW,330,1.0,4.0,71,0.00,,,0.00,88,weatherlink.com 1.10,2013-02-03 20:45:00,
2013-02-03 16:00:00,23.7,16.0,29.79,NNW,340,3.0,3.0,73,0.00,,,0.00,81,weatherlink.com 1.10,2013-02-03 21:00:00,
2013-02-03 16:15:00,23.4,16.0,29.79,NNW,339,0.0,2.0,73,0.00,,,0.00,54,weatherlink.com 1.10,2013-02-03 21:15:00,
2013-02-03 16:30:00,23.4,16.0,29.79,NNW,339,0.0,0.0,73,0.00,,,0.00,32,weatherlink.com 1.10,2013-02-03 21:30:00,
2013-02-03 16:45:00,23.2,15.0,29.79,NNW,339,0.0,1.0,72,0.00,,,0.00,16,weatherlink.com 1.10,2013-02-03 21:45:00,
2013-02-03 17:00:00,22.8,15.0,29.79,NNW,335,3.0,3.0,73,0.00,,,0.00,12,weatherlink.com 1.10,2013-02-03 22:00:00,
2013-02-03 17:15:00,22.6,15.0,29.78,WNW,299,2.0,5.0,74,0.01,,,0.01,0,weatherlink.com 1.10,2013-02-03 22:15:00,
2013-02-03 17:30:00,22.2,15.0,29.78,WSW,254,3.0,4.0,75,0.01,,,0.01,0,weatherlink.com 1.10,2013-02-03 22:30:00,
2013-02-03 17:45:00,21.8,15.0,29.78,West,261,2.0,3.0,76,0.01,,,0.01,0,weatherlink.com 1.10,2013-02-03 22:45:00,
2013-02-03 18:00:00,21.8,16.0,29.78,WNW,289,1.0,5.0,77,0.01,,,0.01,0,weatherlink.com 1.10,2013-02-03 23:00:00,
2013-02-03 18:15:00,21.6,16.0,29.78,West,270,1.0,3.0,79,0.00,,,0.01,0,weatherlink.com 1.10,2013-02-03 23:15:00,
2013-02-03 18:30:00,21.4,16.0,29.78,West,281,0.0,4.0,79,0.00,,,0.01,0,weatherlink.com 1.10,2013-02-03 23:30:00,
2013-02-03 18:45:00,21.5,16.0,29.79,West,267,0.0,4.0,79,0.00,,,0.01,0,weatherlink.com 1.10,2013-02-03 23:45:00,
2013-02-03 19:00:00,21.3,16.0,29.79,WNW,292,2.0,5.0,81,0.00,,,0.01,0,weatherlink.com 1.10,2013-02-04 00:00:00,
2013-02-03 19:15:00,20.6,17.0,29.79,WNW,286,4.0,7.0,84,0.00,,,0.01,0,weatherlink.com 1.10,2013-02-04 00:15:00,
2013-02-03 19:30:00,20.1,17.0,29.79,West,277,5.0,7.0,86,0.00,,,0.01,0,weatherlink.com 1.10,2013-02-04 00:30:00,
2013-02-03 19:45:00,20.0,17.0,29.79,West,277,4.0,7.0,88,0.00,,,0.01,0,weatherlink.com 1.10,2013-02-04 00:45:00,
2013-02-03 20:00:00,20.1,17.0,29.79,WNW,288,5.0,5.0,88,0.00,,,0.01,0,weatherlink.com 1.10,2013-02-04 01:00:00,
2013-02-03 20:15:00,20.1,17.0,29.78,West,274,2.0,5.0,88,0.00,,,0.01,0,weatherlink.com 1.10,2013-02-04 01:15:00,
2013-02-03 20:30:00,20.0,17.0,29.79,West,275,2.0,5.0,89,0.00,,,0.01,0,weatherlink.com 1.10,2013-02-04 01:30:00,
2013-02-03 20:45:00,20.0,17.0,29.79,West,267,2.0,6.0,89,0.00,,,0.01,0,weatherlink.com 1.10,2013-02-04 01:45:00,
2013-02-03 21:00:00,20.0,17.0,29.79,WSW,258,3.0,4.0,89,0.00,,,0.01,0,weatherlink.com 1.10,2013-02-04 02:00:00,
2013-02-03 21:15:00,20.0,17.0,29.79,West,263,3.0,6.0,88,0.00,,,0.01,0,weatherlink.com 1.10,2013-02-04 02:15:00,
2013-02-03 21:30:00,19.9,17.0,29.79,West,270,3.0,7.0,87,0.00,,,0.01,0,weatherlink.com 1.10,2013-02-04 02:30:00,
2013-02-03 21:45:00,19.7,17.0,29.79,WSW,242,4.0,9.0,87,0.00,,,0.01,0,weatherlink.com 1.10,2013-02-04 02:45:00,
2013-02-03 22:00:00,19.3,16.0,29.79,West,281,5.0,8.0,87,0.00,,,0.01,0,weatherlink.com 1.10,2013-02-04 03:00:00,
2013-02-03 22:15:00,19.1,16.0,29.79,WSW,252,4.0,7.0,87,0.00,,,0.01,0,weatherlink.com 1.10,2013-02-04 03:15:00,
2013-02-03 22:30:00,19.0,16.0,29.79,West,263,4.0,8.0,87,0.00,,,0.01,0,weatherlink.com 1.10,2013-02-04 03:30:00,
2013-02-03 22:45:00,19.0,16.0,29.79,West,275,7.0,13.0,88,0.00,,,0.01,0,weatherlink.com 1.10,2013-02-04 03:45:00,
2013-02-03 23:00:00,19.0,17.0,29.79,West,264,4.0,10.0,90,0.00,,,0.01,0,weatherlink.com 1.10,2013-02-04 04:00:00,
2013-02-03 23:15:00,18.9,17.0,29.79,WNW,284,10.0,12.0,91,0.00,,,0.01,0,weatherlink.com 1.10,2013-02-04 04:15:00,
2013-02-03 23:30:00,18.9,17.0,29.80,SW,229,4.0,12.0,91,0.00,,,0.01,0,weatherlink.com 1.10,2013-02-04 04:30:00,
2013-02-03 23:45:00,18.8,17.0,29.80,West,261,8.0,15.0,91,0.00,,,0.01,0,weatherlink.com 1.10,2013-02-04 04:45:00,